createdAt,value
2022-11-17T00:01:08.201Z,11.32
2022-11-17T00:03:18.792Z,6.38
2022-11-17T00:05:20.376Z,10.00
2022-11-17T00:07:22.030Z,5.30
2022-11-17T00:09:24.092Z,7.90
2022-11-17T00:11:25.597Z,5.90
2022-11-17T00:13:46.380Z,7.50
2022-11-17T00:15:48.020Z,6.60
2022-11-17T00:18:09.514Z,6.45
2022-11-17T00:20:29.659Z,5.25
2022-11-17T00:22:34.498Z,6.53
2022-11-17T00:24:36.152Z,6.30
2022-11-17T00:26:57.665Z,5.38
2022-11-17T00:29:04.641Z,5.40
2022-11-17T00:31:24.611Z,3.67
2022-11-17T00:33:44.546Z,5.82
2022-11-17T00:35:53.586Z,6.18
2022-11-17T00:38:13.857Z,4.90
2022-11-17T00:40:15.433Z,13.35
2022-11-17T00:42:16.992Z,7.90
2022-11-17T00:44:18.527Z,10.20
2022-11-17T00:46:20.069Z,11.68
2022-11-17T00:48:21.577Z,8.35
2022-11-17T00:50:24.192Z,6.68
2022-11-17T00:52:25.825Z,4.68
2022-11-17T00:54:27.322Z,7.93
2022-11-17T00:56:29.309Z,6.40
2022-11-17T00:58:30.810Z,4.53
2022-11-17T01:00:32.317Z,4.45
2022-11-17T01:02:33.828Z,4.43
2022-11-17T01:04:35.439Z,3.78
2022-11-17T01:06:39.910Z,5.10
2022-11-17T01:08:41.913Z,5.50
2022-11-17T01:10:43.426Z,6.32
2022-11-17T01:12:44.964Z,7.15
2022-11-17T01:14:46.812Z,5.22
2022-11-17T01:16:48.334Z,3.88
2022-11-17T01:18:51.365Z,4.72
2022-11-17T01:20:52.843Z,5.35
2022-11-17T01:22:55.080Z,4.65
2022-11-17T01:24:56.595Z,4.85
2022-11-17T01:26:58.224Z,3.97
2022-11-17T01:29:01.850Z,4.70
2022-11-17T01:31:07.113Z,4.88
2022-11-17T01:33:08.621Z,13.23
2022-11-17T01:35:10.268Z,9.68
2022-11-17T01:37:20.793Z,12.57
2022-11-17T01:39:24.200Z,11.73
2022-11-17T01:41:28.000Z,13.32
2022-11-17T01:43:37.933Z,14.00
2022-11-17T01:45:39.532Z,8.88
2022-11-17T01:47:57.615Z,10.82
2022-11-17T01:50:11.461Z,12.13
2022-11-17T01:52:13.540Z,4.30
2022-11-17T01:54:35.867Z,7.30
2022-11-17T01:56:42.186Z,5.00
2022-11-17T01:58:49.628Z,9.13
2022-11-17T02:00:52.567Z,5.20
2022-11-17T02:02:54.327Z,10.88
2022-11-17T02:05:10.406Z,4.43
2022-11-17T02:07:19.882Z,7.03
2022-11-17T02:09:22.280Z,5.38
2022-11-17T02:11:25.151Z,5.10
2022-11-17T02:13:27.723Z,5.10
2022-11-17T02:15:30.124Z,4.88
2022-11-17T02:17:40.410Z,3.97
2022-11-17T02:19:44.312Z,5.00
2022-11-17T02:21:57.923Z,7.25
2022-11-17T02:24:21.216Z,7.57
2022-11-17T02:26:41.701Z,7.60
2022-11-17T02:29:05.485Z,3.97
2022-11-17T02:31:09.857Z,5.03
2022-11-17T02:33:13.506Z,10.40
2022-11-17T02:35:23.643Z,5.95
2022-11-17T02:37:55.350Z,8.30
2022-11-17T02:40:01.120Z,6.53
2022-11-17T02:42:21.458Z,6.15
2022-11-17T02:44:40.041Z,5.82
2022-11-17T02:46:48.449Z,4.85
2022-11-17T02:48:55.148Z,5.65
2022-11-17T02:50:58.179Z,19.40
2022-11-17T02:52:59.697Z,4.28
2022-11-17T02:55:03.031Z,5.38
2022-11-17T02:57:04.539Z,5.35
2022-11-17T02:59:06.155Z,5.28
2022-11-17T03:01:27.506Z,7.05
2022-11-17T03:03:44.719Z,5.80
2022-11-17T03:06:04.578Z,7.55
2022-11-17T03:08:17.355Z,8.23
2022-11-17T03:10:57.084Z,5.40
2022-11-17T03:13:14.204Z,5.45
2022-11-17T03:15:21.456Z,4.93
2022-11-17T03:17:35.100Z,4.50
2022-11-17T03:19:43.991Z,5.75
2022-11-17T03:21:55.412Z,4.60
2022-11-17T03:24:09.243Z,3.85
2022-11-17T03:26:15.782Z,5.65
2022-11-17T03:28:21.484Z,4.63
2022-11-17T03:30:25.542Z,5.20
2022-11-17T03:32:30.929Z,5.13
2022-11-17T03:34:37.681Z,4.07
2022-11-17T03:36:42.178Z,4.60
2022-11-17T03:39:06.306Z,3.60
2022-11-17T03:41:10.331Z,3.47
2022-11-17T03:43:14.468Z,3.88
2022-11-17T03:45:21.610Z,5.65
2022-11-17T03:47:26.731Z,4.95
2022-11-17T03:49:47.396Z,4.75
2022-11-17T03:51:49.003Z,5.22
2022-11-17T03:53:51.341Z,5.72
2022-11-17T03:56:15.696Z,5.95
2022-11-17T03:58:21.996Z,7.72
2022-11-17T04:00:23.870Z,7.22
2022-11-17T04:02:26.754Z,5.63
2022-11-17T04:04:48.219Z,5.18
2022-11-17T04:06:55.549Z,3.03
2022-11-17T04:08:57.123Z,6.57
2022-11-17T04:11:17.296Z,5.97
2022-11-17T04:13:37.498Z,7.15
2022-11-17T04:15:58.981Z,7.00
2022-11-17T04:18:00.597Z,8.18
2022-11-17T04:20:02.067Z,6.10
2022-11-17T04:22:03.676Z,4.43
2022-11-17T04:24:05.530Z,5.18
2022-11-17T04:26:25.772Z,4.35
2022-11-17T04:28:37.730Z,3.88
2022-11-17T04:30:39.289Z,3.50
2022-11-17T04:32:40.843Z,4.10
2022-11-17T04:34:42.694Z,5.80
2022-11-17T04:36:44.148Z,3.35
2022-11-17T04:38:48.085Z,2.75
2022-11-17T04:41:08.375Z,2.45
2022-11-17T04:43:09.826Z,3.53
2022-11-17T04:45:11.278Z,3.83
2022-11-17T04:47:12.763Z,2.80
2022-11-17T04:49:15.914Z,2.88
2022-11-17T04:51:17.507Z,2.70
2022-11-17T04:53:19.004Z,2.55
2022-11-17T04:55:20.461Z,2.80
2022-11-17T04:57:21.982Z,3.70
2022-11-17T04:59:23.866Z,3.05
2022-11-17T05:01:27.019Z,3.08
2022-11-17T05:03:28.480Z,3.22
2022-11-17T05:05:29.942Z,3.35
2022-11-17T05:07:31.495Z,3.63
2022-11-17T05:09:33.206Z,3.92
2022-11-17T05:11:53.092Z,3.15
2022-11-17T05:13:54.822Z,3.35
2022-11-17T05:16:16.203Z,3.08
2022-11-17T05:18:17.644Z,3.83
2022-11-17T05:20:19.128Z,3.40
2022-11-17T05:22:41.805Z,3.42
2022-11-17T05:24:43.268Z,3.97
2022-11-17T05:26:47.313Z,3.22
2022-11-17T05:28:49.170Z,3.00
2022-11-17T05:30:50.623Z,3.75
2022-11-17T05:32:52.052Z,5.78
2022-11-17T05:34:53.523Z,5.75
2022-11-17T05:36:55.033Z,6.10
2022-11-17T05:38:56.832Z,5.57
2022-11-17T05:40:58.915Z,5.25
2022-11-17T05:43:00.450Z,6.68
2022-11-17T05:45:02.072Z,5.38
2022-11-17T05:47:03.577Z,6.05
2022-11-17T05:49:05.117Z,6.43
2022-11-17T05:51:06.851Z,7.20
2022-11-17T05:53:08.681Z,8.32
2022-11-17T05:55:10.165Z,7.07
2022-11-17T05:57:16.777Z,8.40
2022-11-17T05:59:35.807Z,7.53
2022-11-17T06:01:41.634Z,6.68
2022-11-17T06:03:47.835Z,7.43
2022-11-17T06:05:49.433Z,6.55
2022-11-17T06:07:54.795Z,5.60
2022-11-17T06:09:56.591Z,6.68
2022-11-17T06:12:02.556Z,5.32
2022-11-17T06:14:07.267Z,5.80
2022-11-17T06:16:12.211Z,6.10
2022-11-17T06:18:18.407Z,5.47
2022-11-17T06:20:23.618Z,6.43
2022-11-17T06:22:26.937Z,6.68
2022-11-17T06:24:28.741Z,11.00
2022-11-17T06:26:30.364Z,7.00
2022-11-17T06:28:33.068Z,7.45
2022-11-17T06:30:36.550Z,6.57
2022-11-17T06:32:39.860Z,5.75
2022-11-17T06:34:43.490Z,5.93
2022-11-17T06:36:44.938Z,6.22
2022-11-17T06:38:46.431Z,5.72
2022-11-17T06:40:47.883Z,8.93
2022-11-17T06:43:08.211Z,9.07
2022-11-17T06:45:11.114Z,7.80
2022-11-17T06:47:12.543Z,7.38
2022-11-17T06:49:14.011Z,5.20
2022-11-17T06:51:15.525Z,7.10
2022-11-17T06:53:17.047Z,9.93
2022-11-17T06:55:18.665Z,7.32
2022-11-17T06:57:20.108Z,7.93
2022-11-17T06:59:21.646Z,6.63
2022-11-17T07:01:23.277Z,7.43
2022-11-17T07:03:24.859Z,12.95
2022-11-17T07:05:27.709Z,5.55
2022-11-17T07:07:29.259Z,6.30
2022-11-17T07:09:30.923Z,11.77
2022-11-17T07:11:35.811Z,9.85
2022-11-17T07:14:00.767Z,10.23
2022-11-17T07:16:12.599Z,5.47
2022-11-17T07:18:23.505Z,5.65
2022-11-17T07:20:54.627Z,5.28
2022-11-17T07:23:00.156Z,7.85
2022-11-17T07:25:22.522Z,8.52
2022-11-17T07:27:24.273Z,7.65
2022-11-17T07:29:43.600Z,10.27
2022-11-17T07:31:57.003Z,8.80
2022-11-17T07:34:10.475Z,8.95
2022-11-17T07:36:30.125Z,9.95
2022-11-17T07:40:58.073Z,10.40
2022-11-17T07:43:12.514Z,9.43
2022-11-17T07:45:31.935Z,8.00
2022-11-17T07:47:43.205Z,5.47
2022-11-17T07:49:56.654Z,8.00
2022-11-17T07:52:13.610Z,9.10
2022-11-17T07:54:27.623Z,8.85
2022-11-17T07:56:42.229Z,8.98
2022-11-17T07:58:54.713Z,9.20
2022-11-17T08:00:56.213Z,13.23
2022-11-17T08:03:02.195Z,14.93
2022-11-17T08:05:03.827Z,14.93
2022-11-17T08:07:05.332Z,12.02
2022-11-17T08:09:07.310Z,10.35
2022-11-17T08:11:16.764Z,8.93
2022-11-17T08:13:18.205Z,11.15
2022-11-17T08:15:19.887Z,8.68
2022-11-17T08:17:21.404Z,12.20
2022-11-17T08:19:22.809Z,10.43
2022-11-17T08:21:30.579Z,9.55
2022-11-17T08:23:44.353Z,12.50
2022-11-17T08:26:02.202Z,12.68
2022-11-17T08:28:15.980Z,7.95
2022-11-17T08:30:30.464Z,11.40
2022-11-17T08:32:32.750Z,8.38
2022-11-17T08:34:34.274Z,70.00
2022-11-17T08:36:35.922Z,50.35
2022-11-17T08:38:37.700Z,8.52
2022-11-17T08:40:39.285Z,11.10
2022-11-17T08:43:00.307Z,20.35
2022-11-17T08:45:08.693Z,15.82
2022-11-17T08:47:25.237Z,18.90
2022-11-17T08:49:38.885Z,14.90
2022-11-17T08:51:55.714Z,11.63
2022-11-17T08:54:11.992Z,10.20
2022-11-17T08:56:25.509Z,8.00
2022-11-17T08:58:47.339Z,11.80
2022-11-17T09:00:52.822Z,12.07
2022-11-17T09:05:23.622Z,16.48
2022-11-17T09:07:35.718Z,12.90
2022-11-17T09:09:37.367Z,12.45
2022-11-17T09:11:38.908Z,9.13
2022-11-17T09:13:40.868Z,14.50
2022-11-17T09:15:42.502Z,9.15
2022-11-17T09:17:48.038Z,12.32
2022-11-17T09:20:05.077Z,9.45
2022-11-17T09:22:18.177Z,14.13
2022-11-17T09:24:20.055Z,12.77
2022-11-17T09:26:21.672Z,14.88
2022-11-17T09:28:26.166Z,20.08
2022-11-17T09:30:27.935Z,15.82
2022-11-17T09:32:29.498Z,12.82
2022-11-17T09:34:41.387Z,10.27
2022-11-17T09:36:56.329Z,12.10
2022-11-17T09:38:57.855Z,13.25
2022-11-17T09:41:00.984Z,20.30
2022-11-17T09:43:11.114Z,9.02
2022-11-17T09:45:20.964Z,12.98
2022-11-17T09:47:37.959Z,39.20
2022-11-17T09:50:03.687Z,12.27
2022-11-17T09:52:18.275Z,12.82
2022-11-17T09:55:00.693Z,17.40
2022-11-17T09:57:10.729Z,17.88
2022-11-17T09:59:15.460Z,17.70
2022-11-17T10:01:20.494Z,21.35
2022-11-17T10:03:43.617Z,8.35
2022-11-17T10:05:47.056Z,8.23
2022-11-17T10:07:52.181Z,6.20
2022-11-17T10:09:54.855Z,13.60
2022-11-17T10:12:13.468Z,8.20
2022-11-17T10:14:20.605Z,8.55
2022-11-17T10:16:22.234Z,10.38
2022-11-17T10:18:23.940Z,9.90
2022-11-17T10:20:25.588Z,12.15
2022-11-17T10:22:35.783Z,11.18
2022-11-17T10:24:42.423Z,8.93
2022-11-17T10:26:47.423Z,7.13
2022-11-17T10:29:08.527Z,8.15
2022-11-17T10:31:12.505Z,7.40
2022-11-17T10:33:18.128Z,10.05
2022-11-17T10:35:36.519Z,10.98
2022-11-17T10:37:53.586Z,12.80
2022-11-17T10:40:20.582Z,11.50
2022-11-17T10:42:30.094Z,14.55
2022-11-17T10:44:33.784Z,14.02
2022-11-17T10:47:02.276Z,14.80
2022-11-17T10:49:22.958Z,13.15
2022-11-17T10:51:26.605Z,12.75
2022-11-17T10:53:45.550Z,11.55
2022-11-17T10:55:55.149Z,13.10
2022-11-17T10:58:09.394Z,17.70
2022-11-17T11:00:24.011Z,12.60
2022-11-17T11:02:36.053Z,8.10
2022-11-17T11:04:45.304Z,12.32
2022-11-17T11:06:46.719Z,10.68
2022-11-17T11:08:56.745Z,9.57
2022-11-17T11:10:59.837Z,13.68
2022-11-17T11:13:30.489Z,10.20
2022-11-17T11:15:36.341Z,9.93
2022-11-17T11:17:37.810Z,13.15
2022-11-17T11:19:41.962Z,11.68
2022-11-17T11:21:51.617Z,7.43
2022-11-17T11:26:46.466Z,4.68
2022-11-17T11:28:56.884Z,14.35
2022-11-17T11:31:27.341Z,7.20
2022-11-17T11:33:40.403Z,8.77
2022-11-17T11:35:57.271Z,11.80
2022-11-17T11:38:04.678Z,8.20
2022-11-17T11:40:21.774Z,8.85
2022-11-17T11:42:52.946Z,8.38
2022-11-17T11:45:03.178Z,9.90
2022-11-17T11:47:20.096Z,9.23
2022-11-17T11:49:25.395Z,9.65
2022-11-17T11:51:37.209Z,14.05
2022-11-17T11:53:48.481Z,8.45
2022-11-17T11:56:00.780Z,8.15
2022-11-17T11:58:14.478Z,4.93
2022-11-17T12:00:17.605Z,6.18
2022-11-17T12:02:34.691Z,7.55
2022-11-17T12:04:57.978Z,6.40
2022-11-17T12:07:16.250Z,6.00
2022-11-17T12:09:46.504Z,5.63
2022-11-17T12:12:01.712Z,4.95
2022-11-17T12:14:05.907Z,5.47
2022-11-17T12:16:27.590Z,8.73
2022-11-17T12:18:33.475Z,7.20
2022-11-17T12:20:38.098Z,7.40
2022-11-17T12:22:54.414Z,6.93
2022-11-17T12:24:58.676Z,8.10
2022-11-17T12:27:42.708Z,8.27
2022-11-17T12:29:47.611Z,7.28
2022-11-17T12:31:57.685Z,6.93
2022-11-17T12:33:59.121Z,7.13
2022-11-17T12:36:31.136Z,11.55
2022-11-17T12:38:41.673Z,8.48
2022-11-17T12:40:50.977Z,9.32
2022-11-17T12:43:14.489Z,8.35
2022-11-17T12:45:16.009Z,4.95
2022-11-17T12:47:23.035Z,6.60
2022-11-17T12:50:07.714Z,5.38
2022-11-17T12:52:20.676Z,11.32
2022-11-17T12:54:27.918Z,7.57
2022-11-17T12:57:00.129Z,9.60
2022-11-17T12:59:47.152Z,12.38
2022-11-17T13:02:25.395Z,13.25
2022-11-17T13:04:47.894Z,9.48
2022-11-17T13:07:01.370Z,17.80
2022-11-17T13:09:06.445Z,19.13
2022-11-17T13:11:17.188Z,19.17
2022-11-17T13:13:24.839Z,18.52
2022-11-17T13:15:29.338Z,11.00
2022-11-17T13:17:59.915Z,15.70
2022-11-17T13:20:23.296Z,11.10
2022-11-17T13:22:24.791Z,19.30
2022-11-17T13:24:31.815Z,17.48
2022-11-17T13:27:01.738Z,17.70
2022-11-17T13:29:19.267Z,15.13
2022-11-17T13:31:23.945Z,14.75
2022-11-17T13:33:27.282Z,13.48
2022-11-17T13:35:32.210Z,15.82
2022-11-17T13:37:33.741Z,14.00
2022-11-17T13:39:35.557Z,12.80
2022-11-17T13:41:40.038Z,8.07
2022-11-17T13:43:41.928Z,13.50
2022-11-17T13:45:45.715Z,27.40
2022-11-17T13:47:49.481Z,18.40
2022-11-17T13:49:50.931Z,19.10
2022-11-17T13:51:52.637Z,22.90
2022-11-17T13:53:56.947Z,14.68
2022-11-17T13:55:58.445Z,14.57
2022-11-17T13:58:07.646Z,25.63
2022-11-17T14:00:16.942Z,20.98
2022-11-17T14:02:21.172Z,20.85
2022-11-17T14:04:24.232Z,13.70
2022-11-17T14:06:25.931Z,18.48
2022-11-17T14:08:30.740Z,19.25
2022-11-17T14:10:35.280Z,12.15
2022-11-17T14:12:36.993Z,11.38
2022-11-17T14:14:38.395Z,20.10
2022-11-17T14:16:41.353Z,20.30
2022-11-17T14:18:42.848Z,11.60
2022-11-17T14:20:44.318Z,12.60
2022-11-17T14:23:16.042Z,11.00
2022-11-17T14:25:17.474Z,13.82
2022-11-17T14:27:31.913Z,24.08
2022-11-17T14:29:33.398Z,12.73
2022-11-17T14:31:34.922Z,47.38
2022-11-17T14:33:36.563Z,21.65
2022-11-17T14:35:38.194Z,18.15
2022-11-17T14:37:39.674Z,24.42
2022-11-17T14:39:41.164Z,17.65
2022-11-17T14:41:44.277Z,16.25
2022-11-17T14:43:46.725Z,15.90
2022-11-17T14:45:49.467Z,22.77
2022-11-17T14:47:50.907Z,8.85
2022-11-17T14:49:52.388Z,20.77
2022-11-17T14:51:55.382Z,10.10
2022-11-17T14:53:56.837Z,14.43
2022-11-17T14:55:58.311Z,12.25
2022-11-17T14:57:59.802Z,13.63
2022-11-17T15:00:01.355Z,12.70
2022-11-17T15:02:02.889Z,14.20
2022-11-17T15:04:27.141Z,14.32
2022-11-17T15:06:29.370Z,15.95
2022-11-17T15:08:30.810Z,15.43
2022-11-17T15:10:32.263Z,16.00
2022-11-17T15:12:33.848Z,20.38
2022-11-17T15:14:35.640Z,11.77
2022-11-17T15:16:37.120Z,9.23
2022-11-17T15:18:38.734Z,10.45
2022-11-17T15:20:40.311Z,10.10
2022-11-17T15:22:41.746Z,24.80
2022-11-17T15:24:43.345Z,20.67
2022-11-17T15:26:44.803Z,11.18
2022-11-17T15:28:46.542Z,26.17
2022-11-17T15:30:48.003Z,42.85
2022-11-17T15:32:49.568Z,16.65
2022-11-17T15:34:51.039Z,31.85
2022-11-17T15:36:52.729Z,17.33
2022-11-17T15:38:54.242Z,13.63
2022-11-17T15:40:57.338Z,28.38
2022-11-17T15:42:59.094Z,18.27
2022-11-17T15:45:00.640Z,19.92
2022-11-17T15:47:02.067Z,16.88
2022-11-17T15:49:03.590Z,15.75
2022-11-17T15:51:05.764Z,23.42
2022-11-17T15:53:07.188Z,23.73
2022-11-17T15:55:08.852Z,22.42
2022-11-17T15:57:10.315Z,28.92
2022-11-17T15:59:11.851Z,28.33
2022-11-17T16:01:34.410Z,18.73
2022-11-17T16:03:36.051Z,16.52
2022-11-17T16:05:37.484Z,16.13
2022-11-17T16:07:39.896Z,13.02
2022-11-17T16:09:42.990Z,14.65
2022-11-17T16:11:45.583Z,19.30
2022-11-17T16:13:47.333Z,30.42
2022-11-17T16:15:50.099Z,17.67
2022-11-17T16:17:51.564Z,17.90
2022-11-17T16:19:53.104Z,18.25
2022-11-17T16:21:54.635Z,15.77
2022-11-17T16:23:57.518Z,17.95
2022-11-17T16:25:59.080Z,14.93
2022-11-17T16:28:00.529Z,13.77
2022-11-17T16:30:02.006Z,11.63
2022-11-17T16:32:03.525Z,13.10
2022-11-17T16:34:13.258Z,31.80
2022-11-17T16:36:15.541Z,20.52
2022-11-17T16:38:17.613Z,13.80
2022-11-17T16:40:19.622Z,14.52
2022-11-17T16:42:21.101Z,10.73
2022-11-17T16:44:22.674Z,26.08
2022-11-17T16:46:29.403Z,14.48
2022-11-17T16:48:33.610Z,16.92
2022-11-17T16:50:39.664Z,27.40
2022-11-17T16:52:41.143Z,27.13
2022-11-17T16:54:42.598Z,19.35
2022-11-17T16:56:44.145Z,18.95
2022-11-17T16:58:48.720Z,21.55
2022-11-17T17:00:50.185Z,19.92
2022-11-17T17:02:51.693Z,21.70
2022-11-17T17:04:53.210Z,14.48
2022-11-17T17:06:54.879Z,10.82
2022-11-17T17:09:02.945Z,15.88
2022-11-17T17:11:06.973Z,14.20
2022-11-17T17:13:08.494Z,49.67
2022-11-17T17:15:10.183Z,30.02
2022-11-17T17:17:11.628Z,19.17
2022-11-17T17:19:14.968Z,29.27
2022-11-17T17:21:18.725Z,59.13
2022-11-17T17:23:20.192Z,88.47
2022-11-17T17:25:21.657Z,28.35
2022-11-17T17:27:23.149Z,49.35
2022-11-17T17:29:24.594Z,65.80
2022-11-17T17:31:31.206Z,22.92
2022-11-17T17:33:34.493Z,18.70
2022-11-17T17:35:36.014Z,30.50
2022-11-17T17:37:37.493Z,38.03
2022-11-17T17:39:38.978Z,48.00
2022-11-17T17:41:41.112Z,85.45
2022-11-17T17:43:43.825Z,33.33
2022-11-17T17:45:45.336Z,45.22
2022-11-17T17:47:46.824Z,20.65
2022-11-17T17:49:48.242Z,42.25
2022-11-17T17:51:49.697Z,51.42
2022-11-17T17:53:55.980Z,27.38
2022-11-17T17:56:01.702Z,16.80
2022-11-17T17:58:03.105Z,52.03
2022-11-17T18:00:04.994Z,47.55
2022-11-17T18:02:06.618Z,50.45
2022-11-17T18:04:15.291Z,48.00
2022-11-17T18:06:21.004Z,15.00
2022-11-17T18:08:22.481Z,42.30
2022-11-17T18:10:23.986Z,31.25
2022-11-17T18:12:25.436Z,33.60
2022-11-17T18:14:26.990Z,27.60
2022-11-17T18:16:33.296Z,36.60
2022-11-17T18:18:36.321Z,28.70
2022-11-17T18:20:38.125Z,26.25
2022-11-17T18:22:39.616Z,34.67
2022-11-17T18:24:41.039Z,35.85
2022-11-17T18:26:42.526Z,19.60
2022-11-17T18:28:49.926Z,9.80
2022-11-17T18:30:51.398Z,13.27
2022-11-17T18:32:52.816Z,32.25
2022-11-17T18:34:54.306Z,27.17
2022-11-17T18:36:56.052Z,14.63
2022-11-17T18:38:58.736Z,15.43
2022-11-17T18:41:08.217Z,12.82
2022-11-17T18:43:09.665Z,10.07
2022-11-17T18:45:11.131Z,8.13
2022-11-17T18:47:13.733Z,13.07
2022-11-17T18:49:15.538Z,15.60
2022-11-17T18:51:22.031Z,13.73
2022-11-17T18:53:23.446Z,39.13
2022-11-17T18:55:24.942Z,23.00
2022-11-17T18:57:26.690Z,18.05
2022-11-17T18:59:28.198Z,24.02
2022-11-17T19:01:30.586Z,26.15
2022-11-17T19:03:32.315Z,9.80
2022-11-17T19:05:34.749Z,14.75
2022-11-17T19:07:36.414Z,13.75
2022-11-17T19:09:37.958Z,33.20
2022-11-17T19:11:39.516Z,18.75
2022-11-17T19:13:42.151Z,11.20
2022-11-17T19:15:43.567Z,10.57
2022-11-17T19:17:44.982Z,13.48
2022-11-17T19:19:46.512Z,41.38
2022-11-17T19:21:47.931Z,18.13
2022-11-17T19:23:52.182Z,9.60
2022-11-17T19:25:53.896Z,12.00
2022-11-17T19:27:55.341Z,16.10
2022-11-17T19:29:56.813Z,26.70
2022-11-17T19:31:58.290Z,20.33
2022-11-17T19:34:00.161Z,14.90
2022-11-17T19:36:13.835Z,14.90
2022-11-17T19:38:15.394Z,17.75
2022-11-17T19:40:17.102Z,15.75
2022-11-17T19:42:18.545Z,19.27
2022-11-17T19:44:20.098Z,11.15
2022-11-17T19:46:22.396Z,9.00
2022-11-17T19:48:23.802Z,11.70
2022-11-17T19:50:25.523Z,13.65
2022-11-17T19:52:27.234Z,11.82
2022-11-17T19:54:29.415Z,9.30
2022-11-17T19:56:31.184Z,21.73
2022-11-17T19:58:32.763Z,14.48
2022-11-17T20:00:34.186Z,10.68
2022-11-17T20:02:36.335Z,11.88
2022-11-17T20:04:38.613Z,15.02
2022-11-17T20:06:40.926Z,15.13
2022-11-17T20:08:42.530Z,11.80
2022-11-17T20:10:44.014Z,12.52
2022-11-17T20:12:46.422Z,13.95
2022-11-17T20:14:47.869Z,16.33
2022-11-17T20:16:49.299Z,12.23
2022-11-17T20:18:53.355Z,15.38
2022-11-17T20:20:54.861Z,12.48
2022-11-17T20:22:56.381Z,10.75
2022-11-17T20:25:03.060Z,13.93
2022-11-17T20:27:04.973Z,14.63
2022-11-17T20:29:07.130Z,11.43
2022-11-17T20:31:10.579Z,15.23
2022-11-17T20:33:12.064Z,15.07
2022-11-17T20:35:13.565Z,14.68
2022-11-17T20:37:15.116Z,16.92
2022-11-17T20:39:16.673Z,18.05
2022-11-17T20:41:20.807Z,17.77
2022-11-17T20:43:22.300Z,24.38
2022-11-17T20:45:24.876Z,16.10
2022-11-17T20:47:27.568Z,15.85
2022-11-17T20:49:29.401Z,14.75
2022-11-17T20:51:30.874Z,14.60
2022-11-17T20:53:33.044Z,19.42
2022-11-17T20:55:34.656Z,24.40
2022-11-17T20:57:36.114Z,20.60
2022-11-17T20:59:37.587Z,18.23
2022-11-17T21:01:39.229Z,27.30
2022-11-17T21:03:41.334Z,24.63
2022-11-17T21:05:43.089Z,21.10
2022-11-17T21:07:44.576Z,14.38
2022-11-17T21:09:46.072Z,16.75
2022-11-17T21:11:59.174Z,19.80
2022-11-17T21:14:00.943Z,21.65
2022-11-17T21:16:14.395Z,22.00
2022-11-17T21:18:25.044Z,26.05
2022-11-17T21:20:28.292Z,16.48
2022-11-17T21:22:29.734Z,22.88
2022-11-17T21:24:31.273Z,20.35
2022-11-17T21:26:33.424Z,14.20
2022-11-17T21:28:38.392Z,16.70
2022-11-17T21:30:39.824Z,18.60
2022-11-17T21:32:41.255Z,15.13
2022-11-17T21:34:47.014Z,15.45
2022-11-17T21:36:51.046Z,13.13
2022-11-17T21:38:53.538Z,18.67
2022-11-17T21:40:55.104Z,13.95
2022-11-17T21:42:56.573Z,15.38
2022-11-17T21:44:57.993Z,12.15
2022-11-17T21:46:59.449Z,18.50
2022-11-17T21:49:01.675Z,21.48
2022-11-17T21:51:04.825Z,17.80
2022-11-17T21:53:07.009Z,14.70
2022-11-17T21:55:09.049Z,14.30
2022-11-17T21:57:10.499Z,15.88
2022-11-17T21:59:13.227Z,23.40
2022-11-17T22:01:15.873Z,25.42
2022-11-17T22:03:17.445Z,15.25
2022-11-17T22:05:18.928Z,17.88
2022-11-17T22:07:20.407Z,19.05
2022-11-17T22:09:22.211Z,16.67
2022-11-17T22:11:36.065Z,15.50
2022-11-17T22:13:38.378Z,17.73
2022-11-17T22:15:39.828Z,19.85
2022-11-17T22:17:41.291Z,23.60
2022-11-17T22:19:42.718Z,16.10
2022-11-17T22:21:45.225Z,16.85
2022-11-17T22:23:46.642Z,13.98
2022-11-17T22:26:01.924Z,23.55
2022-11-17T22:28:03.416Z,48.97
2022-11-17T22:30:05.425Z,11.50
2022-11-17T22:32:06.891Z,11.55
2022-11-17T22:34:08.671Z,11.55
2022-11-17T22:36:10.252Z,11.73
2022-11-17T22:38:12.874Z,13.77
2022-11-17T22:40:14.364Z,23.30
2022-11-17T22:42:18.701Z,18.27
2022-11-17T22:44:20.392Z,12.27
2022-11-17T22:46:24.082Z,19.42
2022-11-17T22:48:25.604Z,18.35
2022-11-17T22:50:27.032Z,17.27
2022-11-17T22:52:28.494Z,19.45
2022-11-17T22:54:30.576Z,16.00
2022-11-17T22:56:32.517Z,16.58
2022-11-17T22:58:34.406Z,19.45
2022-11-17T23:00:37.340Z,21.50
2022-11-17T23:02:38.803Z,11.20
2022-11-17T23:04:40.384Z,13.98
2022-11-17T23:06:42.506Z,19.08
2022-11-17T23:08:43.986Z,15.02
2022-11-17T23:10:45.541Z,16.85
2022-11-17T23:12:47.027Z,20.63
2022-11-17T23:14:48.496Z,19.65
2022-11-17T23:16:50.007Z,23.30
2022-11-17T23:18:55.938Z,15.48
2022-11-17T23:20:57.536Z,20.77
2022-11-17T23:22:58.984Z,14.63
2022-11-17T23:25:00.542Z,16.33
2022-11-17T23:27:01.944Z,19.25
2022-11-17T23:29:03.400Z,23.08
2022-11-17T23:31:07.262Z,23.42
2022-11-17T23:33:08.668Z,13.43
2022-11-17T23:35:10.151Z,18.48
2022-11-17T23:37:12.453Z,15.07
2022-11-17T23:39:14.230Z,22.27
2022-11-17T23:41:19.158Z,15.00
2022-11-17T23:43:20.677Z,18.90
2022-11-17T23:45:22.137Z,16.67
2022-11-17T23:47:23.552Z,18.13
2022-11-17T23:49:25.231Z,11.27
2022-11-17T23:51:28.742Z,11.18
2022-11-17T23:53:30.157Z,13.52
2022-11-17T23:55:31.611Z,13.25
2022-11-17T23:57:33.029Z,12.68
2022-11-17T23:59:34.510Z,11.20
